Tampa, Florida
Current Conditions -  °F | °C
As of 11:53 AM on Wednesday 22 Oct 2014 (Local Time) from KTPA Reporting Station
Broken Clouds Broken Clouds  
Wind Chill: 80°   Ceiling: 25000
Heat Index: 81°   Visibility: 10mi
Dew Point: 59°   Wind: 3mph
Humidity: 48%   Direction: NA
Pressure: 30.01"   Gusts: NA
Location:  27.95°N, 82.46°W
Report Text: KTPA 221553Z VRB03KT 10SM FEW130 BKN250 27/15 A3001 RMK AO2 SLP160 T02670150
Loading
Personal Weather Stations






























Interactive Weather Map
Tropical Storm Tracking
New forecast layout! Learn more

10-Day Weather Forecast

Advertisements
Track Severe Weather on mobile